sensor_id;sensor_type;location;lat;lon;timestamp;P1;durP1;ratioP1;P2;durP2;ratioP2
45694;SDS011;31408;45.468;9.124;2023-05-10T00:00:32;21.70;;;11.38;;
45694;SDS011;31408;45.468;9.124;2023-05-10T00:02:57;20.92;;;11.35;;
45694;SDS011;31408;45.468;9.124;2023-05-10T00:05:22;18.90;;;10.95;;
45694;SDS011;31408;45.468;9.124;2023-05-10T00:07:48;23.67;;;12.60;;
45694;SDS011;31408;45.468;9.124;2023-05-10T00:10:13;23.73;;;12.27;;
45694;SDS011;31408;45.468;9.124;2023-05-10T00:12:39;24.98;;;12.68;;
45694;SDS011;31408;45.468;9.124;2023-05-10T00:15:04;24.65;;;13.70;;
45694;SDS011;31408;45.468;9.124;2023-05-10T00:17:30;24.75;;;13.65;;
45694;SDS011;31408;45.468;9.124;2023-05-10T00:19:56;27.27;;;14.80;;
45694;SDS011;31408;45.468;9.124;2023-05-10T00:22:32;27.55;;;14.00;;
45694;SDS011;31408;45.468;9.124;2023-05-10T00:24:57;24.58;;;13.13;;
45694;SDS011;31408;45.468;9.124;2023-05-10T00:27:23;25.05;;;14.23;;
45694;SDS011;31408;45.468;9.124;2023-05-10T00:29:49;23.75;;;12.93;;
45694;SDS011;31408;45.468;9.124;2023-05-10T00:32:14;24.23;;;12.88;;
45694;SDS011;31408;45.468;9.124;2023-05-10T00:34:41;26.85;;;13.68;;
45694;SDS011;31408;45.468;9.124;2023-05-10T00:37:07;29.42;;;16.08;;
45694;SDS011;31408;45.468;9.124;2023-05-10T00:39:32;26.35;;;14.18;;
45694;SDS011;31408;45.468;9.124;2023-05-10T00:42:03;25.83;;;13.95;;
45694;SDS011;31408;45.468;9.124;2023-05-10T00:44:29;21.58;;;11.20;;
45694;SDS011;31408;45.468;9.124;2023-05-10T00:46:56;24.02;;;13.68;;
45694;SDS011;31408;45.468;9.124;2023-05-10T00:49:22;21.90;;;11.93;;
45694;SDS011;31408;45.468;9.124;2023-05-10T00:51:48;22.63;;;11.88;;
45694;SDS011;31408;45.468;9.124;2023-05-10T00:54:15;23.88;;;12.48;;
45694;SDS011;31408;45.468;9.124;2023-05-10T00:56:41;24.40;;;12.55;;
45694;SDS011;31408;45.468;9.124;2023-05-10T00:59:07;20.10;;;11.20;;
45694;SDS011;31408;45.468;9.124;2023-05-10T01:01:43;20.67;;;11.38;;
45694;SDS011;31408;45.468;9.124;2023-05-10T01:04:10;22.35;;;11.20;;
45694;SDS011;31408;45.468;9.124;2023-05-10T01:06:38;26.48;;;11.20;;
45694;SDS011;31408;45.468;9.124;2023-05-10T01:09:04;21.95;;;10.73;;
45694;SDS011;31408;45.468;9.124;2023-05-10T01:11:34;24.10;;;13.25;;
45694;SDS011;31408;45.468;9.124;2023-05-10T01:14:01;21.88;;;11.13;;
45694;SDS011;31408;45.468;9.124;2023-05-10T01:16:26;22.88;;;11.07;;
45694;SDS011;31408;45.468;9.124;2023-05-10T01:18:53;21.10;;;11.70;;
45694;SDS011;31408;45.468;9.124;2023-05-10T01:21:31;23.50;;;10.85;;
45694;SDS011;31408;45.468;9.124;2023-05-10T01:35:05;20.58;;;11.07;;
45694;SDS011;31408;45.468;9.124;2023-05-10T01:37:42;18.45;;;9.77;;
45694;SDS011;31408;45.468;9.124;2023-05-10T01:40:20;22.05;;;11.20;;
45694;SDS011;31408;45.468;9.124;2023-05-10T01:43:01;20.17;;;10.30;;
45694;SDS011;31408;45.468;9.124;2023-05-10T01:45:39;21.63;;;11.55;;
45694;SDS011;31408;45.468;9.124;2023-05-10T01:48:10;20.83;;;11.27;;
45694;SDS011;31408;45.468;9.124;2023-05-10T01:50:38;23.20;;;10.93;;
45694;SDS011;31408;45.468;9.124;2023-05-10T01:53:06;20.92;;;12.05;;
45694;SDS011;31408;45.468;9.124;2023-05-10T01:55:35;24.35;;;11.88;;
45694;SDS011;31408;45.468;9.124;2023-05-10T01:58:15;23.08;;;10.07;;
45694;SDS011;31408;45.468;9.124;2023-05-10T02:00:49;22.77;;;10.55;;
45694;SDS011;31408;45.468;9.124;2023-05-10T02:03:18;20.30;;;10.38;;
45694;SDS011;31408;45.468;9.124;2023-05-10T02:05:46;19.25;;;11.18;;
45694;SDS011;31408;45.468;9.124;2023-05-10T02:08:13;21.63;;;10.43;;
45694;SDS011;31408;45.468;9.124;2023-05-10T02:10:39;19.40;;;9.40;;
45694;SDS011;31408;45.468;9.124;2023-05-10T02:13:06;19.00;;;10.60;;
45694;SDS011;31408;45.468;9.124;2023-05-10T02:15:32;17.48;;;10.27;;
45694;SDS011;31408;45.468;9.124;2023-05-10T02:17:58;18.92;;;8.80;;
45694;SDS011;31408;45.468;9.124;2023-05-10T02:20:25;18.85;;;9.82;;
45694;SDS011;31408;45.468;9.124;2023-05-10T02:22:52;17.50;;;9.32;;
45694;SDS011;31408;45.468;9.124;2023-05-10T02:25:19;18.05;;;9.23;;
45694;SDS011;31408;45.468;9.124;2023-05-10T02:27:46;18.80;;;9.50;;
45694;SDS011;31408;45.468;9.124;2023-05-10T02:30:12;18.85;;;9.07;;
45694;SDS011;31408;45.468;9.124;2023-05-10T02:32:38;17.73;;;9.40;;
45694;SDS011;31408;45.468;9.124;2023-05-10T02:35:04;17.83;;;8.93;;
45694;SDS011;31408;45.468;9.124;2023-05-10T02:37:30;16.13;;;8.57;;
45694;SDS011;31408;45.468;9.124;2023-05-10T02:39:57;13.68;;;7.85;;
45694;SDS011;31408;45.468;9.124;2023-05-10T02:42:24;20.42;;;8.65;;
45694;SDS011;31408;45.468;9.124;2023-05-10T02:44:52;18.33;;;8.45;;
45694;SDS011;31408;45.468;9.124;2023-05-10T02:47:19;13.45;;;7.05;;
45694;SDS011;31408;45.468;9.124;2023-05-10T02:49:45;15.45;;;6.63;;
45694;SDS011;31408;45.468;9.124;2023-05-10T02:52:10;13.98;;;7.05;;
45694;SDS011;31408;45.468;9.124;2023-05-10T02:54:52;12.52;;;6.70;;
45694;SDS011;31408;45.468;9.124;2023-05-10T02:57:22;12.52;;;6.68;;
45694;SDS011;31408;45.468;9.124;2023-05-10T02:59:51;14.45;;;6.60;;
45694;SDS011;31408;45.468;9.124;2023-05-10T03:02:17;14.25;;;6.47;;
45694;SDS011;31408;45.468;9.124;2023-05-10T03:04:42;12.82;;;7.05;;
45694;SDS011;31408;45.468;9.124;2023-05-10T03:07:08;11.20;;;6.80;;
45694;SDS011;31408;45.468;9.124;2023-05-10T03:09:34;14.43;;;6.93;;
45694;SDS011;31408;45.468;9.124;2023-05-10T03:12:11;11.18;;;6.05;;
45694;SDS011;31408;45.468;9.124;2023-05-10T03:17:47;12.35;;;6.68;;
45694;SDS011;31408;45.468;9.124;2023-05-10T03:20:22;15.38;;;7.10;;
45694;SDS011;31408;45.468;9.124;2023-05-10T03:22:52;13.07;;;5.82;;
45694;SDS011;31408;45.468;9.124;2023-05-10T03:25:20;13.60;;;6.80;;
45694;SDS011;31408;45.468;9.124;2023-05-10T03:27:47;13.68;;;6.15;;
45694;SDS011;31408;45.468;9.124;2023-05-10T03:30:13;13.40;;;6.80;;
45694;SDS011;31408;45.468;9.124;2023-05-10T03:32:39;12.35;;;6.18;;
45694;SDS011;31408;45.468;9.124;2023-05-10T03:35:08;13.30;;;6.60;;
45694;SDS011;31408;45.468;9.124;2023-05-10T03:37:38;11.60;;;5.88;;
45694;SDS011;31408;45.468;9.124;2023-05-10T03:40:04;13.90;;;7.47;;
45694;SDS011;31408;45.468;9.124;2023-05-10T03:42:33;12.32;;;6.65;;
45694;SDS011;31408;45.468;9.124;2023-05-10T03:44:59;13.35;;;7.03;;
45694;SDS011;31408;45.468;9.124;2023-05-10T03:47:25;11.77;;;6.57;;
45694;SDS011;31408;45.468;9.124;2023-05-10T03:49:50;11.48;;;6.57;;
45694;SDS011;31408;45.468;9.124;2023-05-10T03:52:16;13.50;;;6.70;;
45694;SDS011;31408;45.468;9.124;2023-05-10T03:54:43;12.45;;;6.53;;
45694;SDS011;31408;45.468;9.124;2023-05-10T03:57:09;12.30;;;6.22;;
45694;SDS011;31408;45.468;9.124;2023-05-10T03:59:35;10.07;;;5.70;;
45694;SDS011;31408;45.468;9.124;2023-05-10T04:02:00;12.30;;;6.07;;
45694;SDS011;31408;45.468;9.124;2023-05-10T04:04:25;13.30;;;6.53;;
45694;SDS011;31408;45.468;9.124;2023-05-10T04:06:51;14.70;;;6.03;;
45694;SDS011;31408;45.468;9.124;2023-05-10T04:09:16;14.18;;;6.55;;
45694;SDS011;31408;45.468;9.124;2023-05-10T04:11:42;12.48;;;6.15;;
45694;SDS011;31408;45.468;9.124;2023-05-10T04:14:08;12.20;;;5.38;;
45694;SDS011;31408;45.468;9.124;2023-05-10T04:16:33;10.23;;;5.75;;
45694;SDS011;31408;45.468;9.124;2023-05-10T04:18:59;12.23;;;6.22;;
45694;SDS011;31408;45.468;9.124;2023-05-10T04:21:25;13.88;;;5.10;;
45694;SDS011;31408;45.468;9.124;2023-05-10T04:23:50;11.60;;;5.68;;
45694;SDS011;31408;45.468;9.124;2023-05-10T04:26:15;12.70;;;6.50;;
45694;SDS011;31408;45.468;9.124;2023-05-10T04:28:41;11.52;;;6.05;;
45694;SDS011;31408;45.468;9.124;2023-05-10T04:31:07;11.50;;;5.53;;
45694;SDS011;31408;45.468;9.124;2023-05-10T04:33:34;9.05;;;5.25;;
45694;SDS011;31408;45.468;9.124;2023-05-10T04:36:00;10.70;;;5.05;;
45694;SDS011;31408;45.468;9.124;2023-05-10T04:38:26;10.27;;;5.68;;
45694;SDS011;31408;45.468;9.124;2023-05-10T04:40:52;9.75;;;5.22;;
45694;SDS011;31408;45.468;9.124;2023-05-10T04:43:17;10.48;;;4.75;;
45694;SDS011;31408;45.468;9.124;2023-05-10T04:45:43;8.18;;;4.38;;
45694;SDS011;31408;45.468;9.124;2023-05-10T04:48:08;8.65;;;4.63;;
45694;SDS011;31408;45.468;9.124;2023-05-10T04:50:34;8.15;;;4.88;;
45694;SDS011;31408;45.468;9.124;2023-05-10T04:52:59;8.73;;;5.13;;
45694;SDS011;31408;45.468;9.124;2023-05-10T04:55:25;9.35;;;5.05;;
45694;SDS011;31408;45.468;9.124;2023-05-10T04:57:52;9.43;;;5.25;;
45694;SDS011;31408;45.468;9.124;2023-05-10T05:00:18;7.40;;;4.47;;
45694;SDS011;31408;45.468;9.124;2023-05-10T05:02:44;9.20;;;5.10;;
45694;SDS011;31408;45.468;9.124;2023-05-10T05:05:11;7.78;;;5.00;;
45694;SDS011;31408;45.468;9.124;2023-05-10T05:07:37;10.10;;;4.90;;
45694;SDS011;31408;45.468;9.124;2023-05-10T05:10:04;9.68;;;4.47;;
45694;SDS011;31408;45.468;9.124;2023-05-10T05:12:33;9.00;;;5.05;;
45694;SDS011;31408;45.468;9.124;2023-05-10T05:14:58;9.23;;;4.68;;
45694;SDS011;31408;45.468;9.124;2023-05-10T05:17:24;11.50;;;5.00;;
45694;SDS011;31408;45.468;9.124;2023-05-10T05:19:49;9.57;;;5.32;;
45694;SDS011;31408;45.468;9.124;2023-05-10T05:22:15;7.53;;;4.50;;
45694;SDS011;31408;45.468;9.124;2023-05-10T05:24:40;7.78;;;5.20;;
45694;SDS011;31408;45.468;9.124;2023-05-10T05:27:06;13.50;;;5.30;;
45694;SDS011;31408;45.468;9.124;2023-05-10T05:29:31;10.88;;;5.53;;
45694;SDS011;31408;45.468;9.124;2023-05-10T05:31:57;8.27;;;4.95;;
45694;SDS011;31408;45.468;9.124;2023-05-10T05:34:22;11.57;;;5.65;;
45694;SDS011;31408;45.468;9.124;2023-05-10T05:36:49;13.02;;;5.68;;
45694;SDS011;31408;45.468;9.124;2023-05-10T05:39:15;11.75;;;6.55;;
45694;SDS011;31408;45.468;9.124;2023-05-10T05:41:40;10.95;;;5.68;;
45694;SDS011;31408;45.468;9.124;2023-05-10T05:44:06;10.93;;;5.43;;
45694;SDS011;31408;45.468;9.124;2023-05-10T05:46:31;11.85;;;5.63;;
45694;SDS011;31408;45.468;9.124;2023-05-10T05:48:57;9.05;;;5.20;;
45694;SDS011;31408;45.468;9.124;2023-05-10T05:51:22;8.90;;;4.68;;
45694;SDS011;31408;45.468;9.124;2023-05-10T05:53:47;9.18;;;5.32;;
45694;SDS011;31408;45.468;9.124;2023-05-10T05:56:13;12.32;;;5.93;;
45694;SDS011;31408;45.468;9.124;2023-05-10T05:58:38;10.57;;;5.32;;
45694;SDS011;31408;45.468;9.124;2023-05-10T06:01:04;8.63;;;5.47;;
45694;SDS011;31408;45.468;9.124;2023-05-10T06:03:30;10.00;;;5.38;;
45694;SDS011;31408;45.468;9.124;2023-05-10T06:05:55;9.32;;;5.03;;
45694;SDS011;31408;45.468;9.124;2023-05-10T06:08:20;9.00;;;5.45;;
45694;SDS011;31408;45.468;9.124;2023-05-10T06:10:51;9.40;;;5.35;;
45694;SDS011;31408;45.468;9.124;2023-05-10T06:13:16;8.63;;;5.03;;
45694;SDS011;31408;45.468;9.124;2023-05-10T06:15:42;8.27;;;4.90;;
45694;SDS011;31408;45.468;9.124;2023-05-10T06:18:07;10.02;;;5.45;;
45694;SDS011;31408;45.468;9.124;2023-05-10T06:20:33;9.57;;;5.10;;
45694;SDS011;31408;45.468;9.124;2023-05-10T06:22:58;8.27;;;4.82;;
45694;SDS011;31408;45.468;9.124;2023-05-10T06:25:24;9.35;;;5.15;;
45694;SDS011;31408;45.468;9.124;2023-05-10T06:27:49;10.50;;;5.47;;
45694;SDS011;31408;45.468;9.124;2023-05-10T06:30:15;10.05;;;5.13;;
45694;SDS011;31408;45.468;9.124;2023-05-10T06:32:41;10.60;;;5.50;;
45694;SDS011;31408;45.468;9.124;2023-05-10T06:35:08;10.25;;;4.97;;
45694;SDS011;31408;45.468;9.124;2023-05-10T06:37:34;9.23;;;5.05;;
45694;SDS011;31408;45.468;9.124;2023-05-10T06:39:59;8.70;;;4.80;;
45694;SDS011;31408;45.468;9.124;2023-05-10T06:42:25;9.48;;;5.53;;
45694;SDS011;31408;45.468;9.124;2023-05-10T06:44:52;9.80;;;5.30;;
45694;SDS011;31408;45.468;9.124;2023-05-10T06:47:17;10.40;;;5.60;;
45694;SDS011;31408;45.468;9.124;2023-05-10T06:49:43;9.25;;;5.40;;
45694;SDS011;31408;45.468;9.124;2023-05-10T06:52:08;8.45;;;4.93;;
45694;SDS011;31408;45.468;9.124;2023-05-10T06:54:34;8.70;;;4.65;;
45694;SDS011;31408;45.468;9.124;2023-05-10T06:56:59;10.93;;;4.57;;
45694;SDS011;31408;45.468;9.124;2023-05-10T06:59:25;7.25;;;4.68;;
45694;SDS011;31408;45.468;9.124;2023-05-10T07:01:55;7.30;;;4.20;;
45694;SDS011;31408;45.468;9.124;2023-05-10T07:04:20;6.20;;;4.22;;
45694;SDS011;31408;45.468;9.124;2023-05-10T07:06:46;7.95;;;4.40;;
45694;SDS011;31408;45.468;9.124;2023-05-10T07:09:11;8.50;;;4.63;;
45694;SDS011;31408;45.468;9.124;2023-05-10T07:11:38;8.68;;;3.90;;
45694;SDS011;31408;45.468;9.124;2023-05-10T07:14:03;7.63;;;4.45;;
45694;SDS011;31408;45.468;9.124;2023-05-10T07:16:29;6.93;;;4.10;;
45694;SDS011;31408;45.468;9.124;2023-05-10T07:18:54;7.57;;;3.72;;
45694;SDS011;31408;45.468;9.124;2023-05-10T07:21:20;9.13;;;3.75;;
45694;SDS011;31408;45.468;9.124;2023-05-10T07:23:45;5.32;;;3.55;;
45694;SDS011;31408;45.468;9.124;2023-05-10T07:26:11;6.10;;;4.07;;
45694;SDS011;31408;45.468;9.124;2023-05-10T07:28:36;10.48;;;3.88;;
45694;SDS011;31408;45.468;9.124;2023-05-10T07:31:19;5.70;;;3.53;;
45694;SDS011;31408;45.468;9.124;2023-05-10T07:33:44;5.45;;;3.50;;
45694;SDS011;31408;45.468;9.124;2023-05-10T07:36:10;7.57;;;3.75;;
45694;SDS011;31408;45.468;9.124;2023-05-10T07:38:36;6.70;;;3.45;;
45694;SDS011;31408;45.468;9.124;2023-05-10T07:41:01;7.40;;;4.40;;
45694;SDS011;31408;45.468;9.124;2023-05-10T07:43:27;7.28;;;5.13;;
45694;SDS011;31408;45.468;9.124;2023-05-10T07:45:52;7.97;;;4.03;;
45694;SDS011;31408;45.468;9.124;2023-05-10T07:48:18;7.22;;;3.90;;
45694;SDS011;31408;45.468;9.124;2023-05-10T07:50:43;6.18;;;3.80;;
45694;SDS011;31408;45.468;9.124;2023-05-10T07:53:09;4.80;;;3.17;;
45694;SDS011;31408;45.468;9.124;2023-05-10T07:55:35;6.55;;;4.50;;
45694;SDS011;31408;45.468;9.124;2023-05-10T07:58:00;4.22;;;2.85;;
45694;SDS011;31408;45.468;9.124;2023-05-10T08:00:26;6.15;;;3.80;;
45694;SDS011;31408;45.468;9.124;2023-05-10T08:02:51;5.82;;;3.28;;
45694;SDS011;31408;45.468;9.124;2023-05-10T08:05:17;4.80;;;3.22;;
45694;SDS011;31408;45.468;9.124;2023-05-10T08:07:43;5.93;;;4.00;;
45694;SDS011;31408;45.468;9.124;2023-05-10T08:10:09;6.95;;;3.20;;
45694;SDS011;31408;45.468;9.124;2023-05-10T08:12:41;6.50;;;3.47;;
45694;SDS011;31408;45.468;9.124;2023-05-10T08:15:06;6.68;;;3.60;;
45694;SDS011;31408;45.468;9.124;2023-05-10T08:17:32;4.55;;;3.08;;
45694;SDS011;31408;45.468;9.124;2023-05-10T08:19:57;6.53;;;3.55;;
45694;SDS011;31408;45.468;9.124;2023-05-10T08:22:23;5.35;;;3.30;;
45694;SDS011;31408;45.468;9.124;2023-05-10T08:24:48;5.85;;;3.63;;
45694;SDS011;31408;45.468;9.124;2023-05-10T08:27:13;7.65;;;3.45;;
45694;SDS011;31408;45.468;9.124;2023-05-10T08:29:39;4.50;;;3.22;;
45694;SDS011;31408;45.468;9.124;2023-05-10T08:32:04;4.25;;;3.25;;
45694;SDS011;31408;45.468;9.124;2023-05-10T08:34:30;10.65;;;4.32;;
45694;SDS011;31408;45.468;9.124;2023-05-10T08:36:56;4.40;;;3.15;;
45694;SDS011;31408;45.468;9.124;2023-05-10T08:39:21;8.13;;;3.22;;
45694;SDS011;31408;45.468;9.124;2023-05-10T08:41:48;5.25;;;3.38;;
45694;SDS011;31408;45.468;9.124;2023-05-10T08:44:16;7.32;;;3.95;;
45694;SDS011;31408;45.468;9.124;2023-05-10T08:46:43;4.70;;;3.00;;
45694;SDS011;31408;45.468;9.124;2023-05-10T08:49:11;7.22;;;3.55;;
45694;SDS011;31408;45.468;9.124;2023-05-10T08:51:40;5.13;;;2.78;;
45694;SDS011;31408;45.468;9.124;2023-05-10T08:54:06;6.57;;;3.28;;
45694;SDS011;31408;45.468;9.124;2023-05-10T08:56:31;4.80;;;3.13;;
45694;SDS011;31408;45.468;9.124;2023-05-10T08:58:57;5.53;;;3.35;;
45694;SDS011;31408;45.468;9.124;2023-05-10T09:01:38;6.35;;;2.90;;
45694;SDS011;31408;45.468;9.124;2023-05-10T09:04:03;4.60;;;3.15;;
45694;SDS011;31408;45.468;9.124;2023-05-10T09:06:29;5.28;;;2.97;;
45694;SDS011;31408;45.468;9.124;2023-05-10T09:08:54;5.13;;;3.08;;
45694;SDS011;31408;45.468;9.124;2023-05-10T09:11:25;2.78;;;2.28;;
45694;SDS011;31408;45.468;9.124;2023-05-10T09:13:51;4.75;;;2.90;;
45694;SDS011;31408;45.468;9.124;2023-05-10T09:16:17;4.25;;;2.90;;
45694;SDS011;31408;45.468;9.124;2023-05-10T09:18:42;3.60;;;2.97;;
45694;SDS011;31408;45.468;9.124;2023-05-10T09:21:08;5.45;;;3.17;;
45694;SDS011;31408;45.468;9.124;2023-05-10T09:23:34;8.27;;;3.45;;
45694;SDS011;31408;45.468;9.124;2023-05-10T09:26:06;6.30;;;3.30;;
45694;SDS011;31408;45.468;9.124;2023-05-10T09:28:49;4.88;;;3.10;;
45694;SDS011;31408;45.468;9.124;2023-05-10T09:31:19;6.00;;;2.95;;
45694;SDS011;31408;45.468;9.124;2023-05-10T09:33:49;5.03;;;2.58;;
45694;SDS011;31408;45.468;9.124;2023-05-10T09:36:15;4.40;;;2.97;;
45694;SDS011;31408;45.468;9.124;2023-05-10T09:38:50;4.55;;;3.38;;
45694;SDS011;31408;45.468;9.124;2023-05-10T09:43:43;5.82;;;2.92;;
45694;SDS011;31408;45.468;9.124;2023-05-10T09:46:09;5.65;;;2.50;;
45694;SDS011;31408;45.468;9.124;2023-05-10T09:48:39;6.80;;;3.75;;
45694;SDS011;31408;45.468;9.124;2023-05-10T09:51:07;5.13;;;2.85;;
45694;SDS011;31408;45.468;9.124;2023-05-10T09:53:32;6.28;;;3.60;;
45694;SDS011;31408;45.468;9.124;2023-05-10T09:55:58;4.72;;;2.80;;
45694;SDS011;31408;45.468;9.124;2023-05-10T09:58:23;3.75;;;2.88;;
45694;SDS011;31408;45.468;9.124;2023-05-10T10:00:49;5.82;;;3.00;;
45694;SDS011;31408;45.468;9.124;2023-05-10T10:03:18;5.68;;;3.50;;
45694;SDS011;31408;45.468;9.124;2023-05-10T10:05:45;4.07;;;3.05;;
45694;SDS011;31408;45.468;9.124;2023-05-10T10:08:12;4.15;;;2.80;;
45694;SDS011;31408;45.468;9.124;2023-05-10T10:10:38;4.57;;;2.83;;
45694;SDS011;31408;45.468;9.124;2023-05-10T10:13:05;4.90;;;3.15;;
45694;SDS011;31408;45.468;9.124;2023-05-10T10:15:32;4.68;;;3.00;;
45694;SDS011;31408;45.468;9.124;2023-05-10T10:17:58;4.20;;;2.72;;
45694;SDS011;31408;45.468;9.124;2023-05-10T10:20:25;3.42;;;2.72;;
45694;SDS011;31408;45.468;9.124;2023-05-10T10:22:51;3.13;;;2.75;;
45694;SDS011;31408;45.468;9.124;2023-05-10T10:25:17;6.65;;;4.28;;
45694;SDS011;31408;45.468;9.124;2023-05-10T10:36:12;6.97;;;3.78;;
45694;SDS011;31408;45.468;9.124;2023-05-10T10:41:32;4.53;;;3.40;;
45694;SDS011;31408;45.468;9.124;2023-05-10T10:50:05;7.93;;;4.43;;
45694;SDS011;31408;45.468;9.124;2023-05-10T10:52:33;7.57;;;4.43;;
45694;SDS011;31408;45.468;9.124;2023-05-10T10:57:32;7.18;;;4.10;;
45694;SDS011;31408;45.468;9.124;2023-05-10T11:00:24;6.78;;;3.88;;
45694;SDS011;31408;45.468;9.124;2023-05-10T11:03:11;9.43;;;4.53;;
45694;SDS011;31408;45.468;9.124;2023-05-10T11:05:47;7.25;;;3.40;;
45694;SDS011;31408;45.468;9.124;2023-05-10T11:08:26;6.43;;;3.28;;
45694;SDS011;31408;45.468;9.124;2023-05-10T11:10:54;4.90;;;3.53;;
45694;SDS011;31408;45.468;9.124;2023-05-10T11:13:39;6.05;;;4.07;;
45694;SDS011;31408;45.468;9.124;2023-05-10T11:16:21;5.22;;;3.08;;
45694;SDS011;31408;45.468;9.124;2023-05-10T11:21:32;5.80;;;3.63;;
45694;SDS011;31408;45.468;9.124;2023-05-10T11:23:58;5.47;;;3.83;;
45694;SDS011;31408;45.468;9.124;2023-05-10T11:26:25;5.32;;;3.33;;
45694;SDS011;31408;45.468;9.124;2023-05-10T11:28:55;6.30;;;3.40;;
45694;SDS011;31408;45.468;9.124;2023-05-10T11:31:21;3.65;;;3.03;;
45694;SDS011;31408;45.468;9.124;2023-05-10T11:33:50;5.00;;;3.53;;
45694;SDS011;31408;45.468;9.124;2023-05-10T11:36:17;5.22;;;3.55;;
45694;SDS011;31408;45.468;9.124;2023-05-10T11:38:44;6.40;;;3.28;;
45694;SDS011;31408;45.468;9.124;2023-05-10T11:41:10;7.28;;;3.97;;
45694;SDS011;31408;45.468;9.124;2023-05-10T11:43:38;6.00;;;3.55;;
45694;SDS011;31408;45.468;9.124;2023-05-10T11:46:07;4.68;;;3.60;;
45694;SDS011;31408;45.468;9.124;2023-05-10T11:48:35;9.73;;;4.45;;
45694;SDS011;31408;45.468;9.124;2023-05-10T11:51:01;7.43;;;3.83;;
45694;SDS011;31408;45.468;9.124;2023-05-10T11:53:27;6.53;;;3.75;;
45694;SDS011;31408;45.468;9.124;2023-05-10T11:56:02;4.63;;;3.10;;
45694;SDS011;31408;45.468;9.124;2023-05-10T11:58:28;5.88;;;3.95;;
45694;SDS011;31408;45.468;9.124;2023-05-10T12:00:53;6.07;;;4.10;;
45694;SDS011;31408;45.468;9.124;2023-05-10T12:03:19;6.85;;;4.38;;
45694;SDS011;31408;45.468;9.124;2023-05-10T12:05:44;4.85;;;3.75;;
45694;SDS011;31408;45.468;9.124;2023-05-10T12:08:10;9.13;;;4.82;;
45694;SDS011;31408;45.468;9.124;2023-05-10T12:10:37;7.47;;;4.28;;
45694;SDS011;31408;45.468;9.124;2023-05-10T12:13:03;15.65;;;4.05;;
45694;SDS011;31408;45.468;9.124;2023-05-10T12:15:28;6.95;;;4.70;;
45694;SDS011;31408;45.468;9.124;2023-05-10T12:17:53;6.63;;;3.72;;
45694;SDS011;31408;45.468;9.124;2023-05-10T12:20:20;6.97;;;4.25;;
45694;SDS011;31408;45.468;9.124;2023-05-10T12:22:52;8.07;;;3.78;;
45694;SDS011;31408;45.468;9.124;2023-05-10T12:25:19;4.40;;;3.22;;
45694;SDS011;31408;45.468;9.124;2023-05-10T12:27:50;6.75;;;3.70;;
45694;SDS011;31408;45.468;9.124;2023-05-10T12:30:23;5.18;;;3.35;;
45694;SDS011;31408;45.468;9.124;2023-05-10T12:35:15;5.38;;;3.80;;
45694;SDS011;31408;45.468;9.124;2023-05-10T12:37:44;6.97;;;3.92;;
45694;SDS011;31408;45.468;9.124;2023-05-10T12:40:10;4.88;;;3.28;;
45694;SDS011;31408;45.468;9.124;2023-05-10T12:42:36;5.78;;;3.55;;
45694;SDS011;31408;45.468;9.124;2023-05-10T12:45:03;6.88;;;3.17;;
45694;SDS011;31408;45.468;9.124;2023-05-10T12:47:29;7.35;;;3.08;;
45694;SDS011;31408;45.468;9.124;2023-05-10T12:49:55;3.95;;;2.97;;
45694;SDS011;31408;45.468;9.124;2023-05-10T12:52:20;6.43;;;3.55;;
45694;SDS011;31408;45.468;9.124;2023-05-10T12:54:47;4.70;;;3.30;;
45694;SDS011;31408;45.468;9.124;2023-05-10T12:57:15;5.40;;;3.17;;
45694;SDS011;31408;45.468;9.124;2023-05-10T12:59:41;4.07;;;3.05;;
45694;SDS011;31408;45.468;9.124;2023-05-10T13:02:06;3.65;;;2.88;;
45694;SDS011;31408;45.468;9.124;2023-05-10T13:04:32;4.20;;;2.90;;
45694;SDS011;31408;45.468;9.124;2023-05-10T13:06:57;3.88;;;3.00;;
45694;SDS011;31408;45.468;9.124;2023-05-10T13:09:27;4.70;;;3.08;;
45694;SDS011;31408;45.468;9.124;2023-05-10T13:11:54;5.32;;;3.05;;
45694;SDS011;31408;45.468;9.124;2023-05-10T13:14:20;5.22;;;2.75;;
45694;SDS011;31408;45.468;9.124;2023-05-10T13:16:46;3.53;;;2.50;;
45694;SDS011;31408;45.468;9.124;2023-05-10T13:19:12;5.47;;;2.78;;
45694;SDS011;31408;45.468;9.124;2023-05-10T13:21:38;4.05;;;2.63;;
45694;SDS011;31408;45.468;9.124;2023-05-10T13:24:05;4.43;;;2.90;;
45694;SDS011;31408;45.468;9.124;2023-05-10T13:26:31;5.57;;;3.35;;
45694;SDS011;31408;45.468;9.124;2023-05-10T13:28:57;5.35;;;2.55;;
45694;SDS011;31408;45.468;9.124;2023-05-10T13:31:22;3.70;;;2.78;;
45694;SDS011;31408;45.468;9.124;2023-05-10T13:33:48;4.88;;;3.03;;
45694;SDS011;31408;45.468;9.124;2023-05-10T13:36:13;5.47;;;2.78;;
45694;SDS011;31408;45.468;9.124;2023-05-10T13:38:39;3.22;;;2.40;;
45694;SDS011;31408;45.468;9.124;2023-05-10T13:41:05;4.20;;;2.67;;
45694;SDS011;31408;45.468;9.124;2023-05-10T13:43:30;4.82;;;2.85;;
45694;SDS011;31408;45.468;9.124;2023-05-10T13:45:55;3.78;;;2.65;;
45694;SDS011;31408;45.468;9.124;2023-05-10T13:48:21;4.28;;;2.60;;
45694;SDS011;31408;45.468;9.124;2023-05-10T13:50:46;7.43;;;2.85;;
45694;SDS011;31408;45.468;9.124;2023-05-10T13:53:12;3.17;;;2.65;;
45694;SDS011;31408;45.468;9.124;2023-05-10T13:55:37;4.75;;;3.38;;
45694;SDS011;31408;45.468;9.124;2023-05-10T13:58:03;6.20;;;2.67;;
45694;SDS011;31408;45.468;9.124;2023-05-10T14:00:29;4.53;;;3.13;;
45694;SDS011;31408;45.468;9.124;2023-05-10T14:02:54;6.95;;;3.00;;
45694;SDS011;31408;45.468;9.124;2023-05-10T14:05:20;7.70;;;3.03;;
45694;SDS011;31408;45.468;9.124;2023-05-10T14:07:46;5.25;;;2.78;;
45694;SDS011;31408;45.468;9.124;2023-05-10T14:10:15;3.13;;;2.30;;
45694;SDS011;31408;45.468;9.124;2023-05-10T14:12:40;6.10;;;2.53;;
45694;SDS011;31408;45.468;9.124;2023-05-10T14:15:06;6.38;;;3.13;;
45694;SDS011;31408;45.468;9.124;2023-05-10T14:17:32;3.33;;;2.97;;
45694;SDS011;31408;45.468;9.124;2023-05-10T14:19:58;5.57;;;2.60;;
45694;SDS011;31408;45.468;9.124;2023-05-10T14:22:28;6.90;;;3.05;;
45694;SDS011;31408;45.468;9.124;2023-05-10T14:24:54;3.00;;;2.60;;
45694;SDS011;31408;45.468;9.124;2023-05-10T14:27:19;4.55;;;3.15;;
45694;SDS011;31408;45.468;9.124;2023-05-10T14:29:45;6.78;;;3.85;;
45694;SDS011;31408;45.468;9.124;2023-05-10T14:32:10;4.97;;;3.33;;
45694;SDS011;31408;45.468;9.124;2023-05-10T14:34:36;4.45;;;2.72;;
45694;SDS011;31408;45.468;9.124;2023-05-10T14:37:01;5.88;;;3.38;;
45694;SDS011;31408;45.468;9.124;2023-05-10T14:39:27;4.35;;;2.95;;
45694;SDS011;31408;45.468;9.124;2023-05-10T14:41:54;4.85;;;2.88;;
45694;SDS011;31408;45.468;9.124;2023-05-10T14:44:20;5.88;;;3.15;;
45694;SDS011;31408;45.468;9.124;2023-05-10T14:46:45;4.70;;;3.08;;
45694;SDS011;31408;45.468;9.124;2023-05-10T14:49:11;5.05;;;3.38;;
45694;SDS011;31408;45.468;9.124;2023-05-10T14:51:36;6.00;;;3.10;;
45694;SDS011;31408;45.468;9.124;2023-05-10T14:54:02;3.90;;;3.28;;
45694;SDS011;31408;45.468;9.124;2023-05-10T14:56:27;4.95;;;3.15;;
45694;SDS011;31408;45.468;9.124;2023-05-10T14:58:53;5.65;;;3.28;;
45694;SDS011;31408;45.468;9.124;2023-05-10T15:01:18;5.28;;;3.45;;
45694;SDS011;31408;45.468;9.124;2023-05-10T15:03:44;5.97;;;3.28;;
45694;SDS011;31408;45.468;9.124;2023-05-10T15:06:09;5.00;;;3.53;;
45694;SDS011;31408;45.468;9.124;2023-05-10T15:08:35;6.10;;;3.53;;
45694;SDS011;31408;45.468;9.124;2023-05-10T15:11:01;5.78;;;3.45;;
45694;SDS011;31408;45.468;9.124;2023-05-10T15:13:26;4.15;;;3.40;;
45694;SDS011;31408;45.468;9.124;2023-05-10T15:15:52;5.93;;;3.72;;
45694;SDS011;31408;45.468;9.124;2023-05-10T15:18:17;4.97;;;3.35;;
45694;SDS011;31408;45.468;9.124;2023-05-10T15:20:43;3.90;;;3.15;;